createdAt,value
2018-09-05T00:02:00.030Z,12.40
2018-09-05T00:04:28.393Z,12.30
2018-09-05T00:06:56.722Z,12.30
2018-09-05T00:09:25.081Z,12.20
2018-09-05T00:11:53.398Z,12.10
2018-09-05T00:14:21.795Z,12.00
2018-09-05T00:16:50.087Z,12.00
2018-09-05T00:19:18.407Z,11.90
2018-09-05T00:21:46.713Z,11.90
2018-09-05T00:24:15.023Z,11.90
2018-09-05T00:26:43.381Z,11.90
2018-09-05T00:29:11.751Z,11.90
2018-09-05T00:31:40.137Z,11.80
2018-09-05T00:34:08.467Z,11.80
2018-09-05T00:36:36.831Z,11.70
2018-09-05T00:39:06.942Z,11.60
2018-09-05T00:41:35.277Z,11.50
2018-09-05T00:44:03.710Z,11.50
2018-09-05T00:46:32.068Z,11.50
2018-09-05T00:49:00.816Z,11.50
2018-09-05T00:51:29.211Z,11.50
2018-09-05T00:53:57.592Z,11.40
2018-09-05T00:56:25.960Z,11.50
2018-09-05T00:58:54.411Z,11.40
2018-09-05T01:01:22.802Z,11.20
2018-09-05T01:03:51.189Z,11.20
2018-09-05T01:06:19.518Z,11.10
2018-09-05T01:08:47.904Z,11.10
2018-09-05T01:11:16.311Z,11.00
2018-09-05T01:13:44.724Z,11.00
2018-09-05T01:16:13.187Z,11.00
2018-09-05T01:18:41.658Z,11.00
2018-09-05T01:21:10.095Z,11.00
2018-09-05T01:23:38.564Z,10.90
2018-09-05T01:26:06.968Z,10.90
2018-09-05T01:28:35.343Z,10.80
2018-09-05T01:31:03.715Z,10.80
2018-09-05T01:33:33.679Z,10.80
2018-09-05T01:36:07.450Z,10.80
2018-09-05T01:38:35.838Z,10.80
2018-09-05T01:41:04.195Z,10.80
2018-09-05T01:43:32.523Z,10.70
2018-09-05T01:46:00.842Z,10.70
2018-09-05T01:48:29.165Z,10.60
2018-09-05T01:50:57.472Z,10.60
2018-09-05T01:53:25.827Z,10.50
2018-09-05T01:55:54.157Z,10.50
2018-09-05T01:58:22.543Z,10.50
2018-09-05T02:00:50.886Z,10.50
2018-09-05T02:03:19.245Z,10.40
2018-09-05T02:05:47.580Z,10.30
2018-09-05T02:08:16.051Z,10.30
2018-09-05T02:10:44.351Z,10.30
2018-09-05T02:13:12.941Z,10.30
2018-09-05T02:15:41.258Z,10.40
2018-09-05T02:18:09.837Z,10.30
2018-09-05T02:20:38.162Z,10.30
2018-09-05T02:23:06.528Z,10.20
2018-09-05T02:25:34.866Z,10.10
2018-09-05T02:28:03.194Z,10.20
2018-09-05T02:30:31.523Z,10.20
2018-09-05T02:32:59.864Z,10.20
2018-09-05T02:35:28.222Z,10.20
2018-09-05T02:37:56.564Z,10.10
2018-09-05T02:40:24.977Z,10.00
2018-09-05T02:42:53.296Z,10.10
2018-09-05T02:45:21.696Z,10.10
2018-09-05T02:47:50.015Z,10.00
2018-09-05T02:50:18.388Z,10.00
2018-09-05T02:52:46.770Z,10.00
2018-09-05T02:55:20.494Z,9.90
2018-09-05T02:57:48.887Z,9.90
2018-09-05T03:00:29.682Z,9.80
2018-09-05T03:02:58.030Z,9.80
2018-09-05T03:05:26.442Z,9.90
2018-09-05T03:07:54.779Z,9.90
2018-09-05T03:10:23.129Z,9.80
2018-09-05T03:12:51.466Z,9.80
2018-09-05T03:15:19.883Z,9.80
2018-09-05T03:17:48.253Z,9.70
2018-09-05T03:20:16.595Z,9.60
2018-09-05T03:22:44.930Z,9.60
2018-09-05T03:25:13.291Z,9.70
2018-09-05T03:27:41.623Z,9.80
2018-09-05T03:30:10.022Z,9.80
2018-09-05T03:32:38.392Z,9.70
2018-09-05T03:35:06.885Z,9.70
2018-09-05T03:37:35.323Z,9.60
2018-09-05T03:40:03.726Z,9.60
2018-09-05T03:42:32.071Z,9.70
2018-09-05T03:45:00.475Z,9.80
2018-09-05T03:47:28.996Z,9.80
2018-09-05T03:49:57.527Z,9.70
2018-09-05T03:52:25.905Z,9.60
2018-09-05T03:54:54.299Z,9.60
2018-09-05T03:57:22.697Z,9.50
2018-09-05T03:59:51.030Z,9.50
2018-09-05T04:02:19.446Z,9.50
2018-09-05T04:04:47.822Z,9.50
2018-09-05T04:07:16.199Z,9.40
2018-09-05T04:09:44.615Z,9.40
2018-09-05T04:12:13.024Z,9.40
2018-09-05T04:14:41.389Z,9.40
2018-09-05T04:17:09.815Z,9.40
2018-09-05T04:19:39.112Z,9.40
2018-09-05T04:22:07.583Z,9.40
2018-09-05T04:24:36.054Z,9.40
2018-09-05T04:27:04.546Z,9.40
2018-09-05T04:29:33.175Z,9.30
2018-09-05T04:32:01.531Z,9.30
2018-09-05T04:34:29.981Z,9.40
2018-09-05T04:36:58.454Z,9.50
2018-09-05T04:39:26.983Z,9.40
2018-09-05T04:41:55.565Z,9.40
2018-09-05T04:44:23.969Z,9.30
2018-09-05T04:46:52.486Z,9.30
2018-09-05T04:49:20.889Z,9.30
2018-09-05T04:51:49.222Z,9.20
2018-09-05T04:54:17.661Z,9.20
2018-09-05T04:56:46.074Z,9.20
2018-09-05T04:59:14.511Z,9.20
2018-09-05T05:01:42.891Z,9.20
2018-09-05T05:04:11.340Z,9.20
2018-09-05T05:06:39.836Z,9.30
2018-09-05T05:09:09.674Z,9.30
2018-09-05T05:11:38.265Z,9.30
2018-09-05T05:14:06.705Z,9.40
2018-09-05T05:16:35.204Z,9.40
2018-09-05T05:19:03.844Z,9.40
2018-09-05T05:21:32.270Z,9.40
2018-09-05T05:24:00.678Z,9.50
2018-09-05T05:26:29.314Z,9.50
2018-09-05T05:28:57.714Z,9.60
2018-09-05T05:31:26.187Z,9.70
2018-09-05T05:33:54.674Z,9.60
2018-09-05T05:36:23.079Z,9.70
2018-09-05T05:38:51.435Z,9.80
2018-09-05T05:41:19.860Z,9.80
2018-09-05T05:43:48.325Z,9.80
2018-09-05T05:46:16.662Z,9.90
2018-09-05T05:48:45.125Z,9.90
2018-09-05T05:51:13.542Z,10.00
2018-09-05T05:53:41.926Z,10.20
2018-09-05T05:56:10.300Z,10.30
2018-09-05T05:58:38.754Z,10.40
2018-09-05T06:01:07.290Z,10.50
2018-09-05T06:03:35.617Z,10.60
2018-09-05T06:06:04.139Z,10.70
2018-09-05T06:08:33.043Z,10.70
2018-09-05T06:11:01.447Z,10.80
2018-09-05T06:13:29.945Z,10.90
2018-09-05T06:15:58.446Z,11.00
2018-09-05T06:18:26.987Z,11.10
2018-09-05T06:20:55.458Z,11.20
2018-09-05T06:23:23.934Z,11.30
2018-09-05T06:25:52.361Z,11.40
2018-09-05T06:28:20.839Z,11.60
2018-09-05T06:30:49.395Z,11.70
2018-09-05T06:33:17.838Z,11.80
2018-09-05T06:35:46.286Z,11.90
2018-09-05T06:38:14.776Z,12.10
2018-09-05T06:40:43.140Z,12.20
2018-09-05T06:43:11.605Z,12.30
2018-09-05T06:45:40.103Z,12.40
2018-09-05T06:48:08.595Z,12.50
2018-09-05T06:50:37.081Z,12.60
2018-09-05T06:53:05.656Z,12.70
2018-09-05T06:55:34.125Z,12.90
2018-09-05T06:58:02.676Z,13.00
2018-09-05T07:00:31.087Z,13.20
2018-09-05T07:02:59.540Z,13.40
2018-09-05T07:05:28.013Z,13.60
2018-09-05T07:07:56.572Z,13.80
2018-09-05T07:10:25.059Z,13.90
2018-09-05T07:12:53.576Z,14.10
2018-09-05T07:15:22.016Z,14.30
2018-09-05T07:17:50.446Z,14.40
2018-09-05T07:20:18.912Z,14.60
2018-09-05T07:22:47.366Z,14.70
2018-09-05T07:25:15.849Z,15.00
2018-09-05T07:27:44.506Z,15.10
2018-09-05T07:30:15.779Z,15.30
2018-09-05T07:32:44.225Z,15.40
2018-09-05T07:35:12.705Z,15.60
2018-09-05T07:37:41.249Z,15.90
2018-09-05T07:40:09.631Z,16.00
2018-09-05T07:42:38.111Z,16.10
2018-09-05T07:45:06.647Z,16.30
2018-09-05T07:47:35.219Z,16.40
2018-09-05T07:50:03.693Z,16.60
2018-09-05T07:52:32.238Z,16.80
2018-09-05T07:55:00.696Z,16.80
2018-09-05T07:57:29.203Z,16.90
2018-09-05T07:59:57.702Z,17.20
2018-09-05T08:02:26.331Z,17.40
2018-09-05T08:04:54.864Z,17.50
2018-09-05T08:07:23.432Z,17.60
2018-09-05T08:09:51.924Z,17.90
2018-09-05T08:12:20.346Z,18.20
2018-09-05T08:14:49.082Z,18.40
2018-09-05T08:17:17.526Z,18.50
2018-09-05T08:19:45.964Z,18.70
2018-09-05T08:22:14.480Z,18.90
2018-09-05T08:24:43.120Z,19.10
2018-09-05T08:27:11.532Z,19.20
2018-09-05T08:29:40.098Z,19.40
2018-09-05T08:32:08.562Z,19.50
2018-09-05T08:34:37.023Z,19.60
2018-09-05T08:37:05.613Z,19.80
2018-09-05T08:39:33.902Z,19.80
2018-09-05T08:42:02.284Z,20.00
2018-09-05T08:44:30.773Z,20.20
2018-09-05T08:46:59.115Z,20.50
2018-09-05T08:49:27.553Z,20.70
2018-09-05T08:51:55.995Z,20.80
2018-09-05T08:54:24.440Z,21.00
2018-09-05T08:56:52.784Z,21.20
2018-09-05T08:59:21.138Z,21.50
2018-09-05T09:01:49.516Z,21.70
2018-09-05T09:04:17.853Z,21.90
2018-09-05T09:06:46.177Z,22.10
2018-09-05T09:09:14.566Z,22.30
2018-09-05T09:11:42.935Z,22.50
2018-09-05T09:14:11.316Z,22.70
2018-09-05T09:16:39.674Z,23.10
2018-09-05T09:19:08.132Z,23.40
2018-09-05T09:21:36.482Z,23.50
2018-09-05T09:24:04.916Z,23.70
2018-09-05T09:26:33.300Z,23.60
2018-09-05T09:29:01.733Z,23.80
2018-09-05T09:31:30.108Z,23.90
2018-09-05T09:33:58.529Z,24.10
2018-09-05T09:36:26.879Z,24.20
2018-09-05T09:38:55.489Z,24.20
2018-09-05T09:41:23.851Z,24.00
2018-09-05T09:43:52.230Z,24.00
2018-09-05T09:46:20.623Z,23.90
2018-09-05T09:48:49.018Z,23.80
2018-09-05T09:51:20.254Z,23.60
2018-09-05T09:53:48.629Z,23.70
2018-09-05T09:56:17.033Z,23.50
2018-09-05T09:58:45.462Z,23.50
2018-09-05T10:01:20.041Z,23.70
2018-09-05T10:03:53.848Z,24.10
2018-09-05T10:06:26.413Z,24.40
2018-09-05T10:09:00.119Z,24.70
2018-09-05T10:11:33.844Z,24.90
2018-09-05T10:14:07.656Z,25.00
2018-09-05T10:16:41.394Z,25.00
2018-09-05T10:19:11.229Z,25.00
2018-09-05T10:21:39.931Z,25.00
2018-09-05T10:24:08.494Z,25.20
2018-09-05T10:26:36.966Z,25.20
2018-09-05T10:29:05.379Z,25.30
2018-09-05T10:31:33.933Z,25.50
2018-09-05T10:34:02.413Z,25.00
2018-09-05T10:36:30.837Z,24.90
2018-09-05T10:38:59.288Z,24.80
2018-09-05T10:41:27.748Z,25.00
2018-09-05T10:43:56.259Z,25.00
2018-09-05T10:46:24.809Z,24.70
2018-09-05T10:48:53.201Z,24.40
2018-09-05T10:51:26.651Z,24.00
2018-09-05T10:53:54.972Z,24.00
2018-09-05T10:56:23.333Z,24.00
2018-09-05T10:58:51.683Z,23.90
2018-09-05T11:01:20.115Z,23.90
2018-09-05T11:03:48.488Z,24.00
2018-09-05T11:06:16.863Z,24.00
2018-09-05T11:08:45.235Z,24.50
2018-09-05T11:11:13.567Z,24.60
2018-09-05T11:13:41.925Z,24.90
2018-09-05T11:16:10.390Z,24.60
2018-09-05T11:18:38.876Z,24.80
2018-09-05T11:21:07.289Z,24.90
2018-09-05T11:23:35.702Z,25.10
2018-09-05T11:26:04.083Z,25.20
2018-09-05T11:28:32.550Z,25.00
2018-09-05T11:31:00.927Z,25.20
2018-09-05T11:33:29.342Z,25.60
2018-09-05T11:35:57.686Z,26.00
2018-09-05T11:38:26.148Z,26.00
2018-09-05T11:40:54.659Z,26.00
2018-09-05T11:43:23.062Z,25.80
2018-09-05T11:45:51.541Z,25.70
2018-09-05T11:48:19.979Z,25.90
2018-09-05T11:50:48.414Z,26.00
2018-09-05T11:53:16.878Z,25.70
2018-09-05T11:55:45.422Z,25.60
2018-09-05T11:58:13.846Z,25.50
2018-09-05T12:00:42.517Z,25.40
2018-09-05T12:03:10.968Z,25.30
2018-09-05T12:05:39.456Z,25.30
2018-09-05T12:08:08.103Z,25.50
2018-09-05T12:10:36.536Z,25.70
2018-09-05T12:13:05.038Z,26.00
2018-09-05T12:15:33.690Z,26.10
2018-09-05T12:18:02.306Z,26.10
2018-09-05T12:20:31.108Z,26.30
2018-09-05T12:22:59.723Z,26.30
2018-09-05T12:25:28.367Z,25.90
2018-09-05T12:27:56.919Z,25.40
2018-09-05T12:30:25.594Z,25.30
2018-09-05T12:32:54.103Z,24.80
2018-09-05T12:35:22.562Z,24.40
2018-09-05T12:37:51.322Z,24.20
2018-09-05T12:40:20.018Z,24.40
2018-09-05T12:42:48.727Z,24.50
2018-09-05T12:45:17.591Z,24.40
2018-09-05T12:47:46.118Z,24.30
2018-09-05T12:50:14.738Z,24.40
2018-09-05T12:52:43.202Z,24.50
2018-09-05T12:55:11.774Z,24.80
2018-09-05T12:57:40.364Z,25.30
2018-09-05T13:00:08.854Z,25.40
2018-09-05T13:02:37.539Z,25.50
2018-09-05T13:05:06.207Z,25.70
2018-09-05T13:07:34.647Z,25.60
2018-09-05T13:10:03.048Z,25.30
2018-09-05T13:12:31.676Z,24.80
2018-09-05T13:15:00.171Z,24.70
2018-09-05T13:17:28.757Z,25.00
2018-09-05T13:19:57.280Z,25.20
2018-09-05T13:22:25.980Z,25.40
2018-09-05T13:24:54.572Z,25.10
2018-09-05T13:27:22.991Z,24.80
2018-09-05T13:29:51.688Z,24.60
2018-09-05T13:32:20.336Z,24.60
2018-09-05T13:34:48.847Z,24.50
2018-09-05T13:37:17.452Z,24.70
2018-09-05T13:39:45.967Z,24.40
2018-09-05T13:42:14.471Z,24.30
2018-09-05T13:44:42.978Z,24.30
2018-09-05T13:47:12.844Z,24.80
2018-09-05T13:49:41.418Z,25.50
2018-09-05T13:52:16.160Z,25.50
2018-09-05T13:54:44.620Z,24.80
2018-09-05T13:57:13.199Z,24.60
2018-09-05T13:59:41.848Z,24.30
2018-09-05T14:02:10.226Z,24.20
2018-09-05T14:04:38.768Z,25.20
2018-09-05T14:07:07.353Z,26.50
2018-09-05T14:09:35.891Z,27.30
2018-09-05T14:12:04.528Z,28.00
2018-09-05T14:14:33.269Z,28.30
2018-09-05T14:17:01.919Z,29.20
2018-09-05T14:19:30.384Z,29.00
2018-09-05T14:21:58.782Z,28.80
2018-09-05T14:24:27.283Z,28.70
2018-09-05T14:26:57.113Z,28.90
2018-09-05T14:29:25.586Z,29.00
2018-09-05T14:31:54.077Z,29.30
2018-09-05T14:34:23.911Z,29.90
2018-09-05T14:36:52.479Z,30.10
2018-09-05T14:39:20.956Z,29.30
2018-09-05T14:41:49.654Z,28.00
2018-09-05T14:44:18.203Z,27.10
2018-09-05T14:46:46.809Z,26.40
2018-09-05T14:49:15.644Z,26.00
2018-09-05T14:51:44.368Z,25.70
2018-09-05T14:54:12.877Z,25.30
2018-09-05T14:56:41.514Z,25.10
2018-09-05T14:59:10.090Z,25.00
2018-09-05T15:01:38.579Z,25.10
2018-09-05T15:04:07.046Z,25.10
2018-09-05T15:06:35.661Z,25.00
2018-09-05T15:09:06.416Z,25.00
2018-09-05T15:11:35.045Z,25.20
2018-09-05T15:14:03.840Z,25.10
2018-09-05T15:16:32.325Z,24.70
2018-09-05T15:19:01.129Z,24.50
2018-09-05T15:21:29.633Z,24.30
2018-09-05T15:23:58.087Z,24.10
2018-09-05T15:26:26.859Z,24.00
2018-09-05T15:28:55.425Z,24.00
2018-09-05T15:31:24.056Z,23.80
2018-09-05T15:33:52.927Z,23.60
2018-09-05T15:36:21.454Z,23.50
2018-09-05T15:38:49.970Z,23.40
2018-09-05T15:41:19.002Z,23.40
2018-09-05T15:43:47.683Z,23.40
2018-09-05T15:46:16.225Z,23.30
2018-09-05T15:48:44.851Z,23.30
2018-09-05T15:51:13.362Z,23.30
2018-09-05T15:53:41.906Z,23.50
2018-09-05T15:56:10.480Z,24.00
2018-09-05T15:58:39.015Z,24.70
2018-09-05T16:01:07.566Z,25.60
2018-09-05T16:03:36.388Z,26.00
2018-09-05T16:06:04.852Z,26.00
2018-09-05T16:08:33.303Z,26.20
2018-09-05T16:11:02.190Z,26.50
2018-09-05T16:13:30.722Z,27.20
2018-09-05T16:15:59.495Z,27.20
2018-09-05T16:18:28.136Z,27.30
2018-09-05T16:20:56.945Z,27.10
2018-09-05T16:23:25.479Z,27.70
2018-09-05T16:25:54.006Z,28.00
2018-09-05T16:28:22.682Z,28.00
2018-09-05T16:30:51.146Z,28.40
2018-09-05T16:33:19.675Z,28.20
2018-09-05T16:35:48.567Z,28.40
2018-09-05T16:38:17.198Z,28.20
2018-09-05T16:40:46.085Z,27.80
2018-09-05T16:43:14.848Z,27.90
2018-09-05T16:45:43.351Z,28.10
2018-09-05T16:48:11.823Z,27.90
2018-09-05T16:50:40.511Z,27.70
2018-09-05T16:53:09.096Z,27.00
2018-09-05T16:55:37.635Z,26.60
2018-09-05T16:58:06.203Z,26.40
2018-09-05T17:00:34.713Z,25.60
2018-09-05T17:03:03.148Z,24.90
2018-09-05T17:05:32.003Z,24.80
2018-09-05T17:08:00.487Z,25.00
2018-09-05T17:10:29.072Z,24.80
2018-09-05T17:12:57.514Z,24.80
2018-09-05T17:15:26.269Z,24.60
2018-09-05T17:17:54.787Z,24.50
2018-09-05T17:20:23.483Z,24.40
2018-09-05T17:22:51.998Z,24.10
2018-09-05T17:25:20.620Z,23.60
2018-09-05T17:27:49.327Z,23.00
2018-09-05T17:30:17.961Z,22.60
2018-09-05T17:32:46.575Z,22.20
2018-09-05T17:35:15.430Z,21.80
2018-09-05T17:37:43.818Z,21.50
2018-09-05T17:40:12.330Z,21.20
2018-09-05T17:42:40.907Z,20.90
2018-09-05T17:45:09.403Z,20.60
2018-09-05T17:47:37.926Z,20.20
2018-09-05T17:50:06.481Z,20.00
2018-09-05T17:52:35.003Z,19.80
2018-09-05T17:55:03.479Z,19.60
2018-09-05T17:57:32.087Z,19.40
2018-09-05T18:00:00.534Z,19.10
2018-09-05T18:02:28.972Z,18.90
2018-09-05T18:04:57.437Z,18.60
2018-09-05T18:07:26.183Z,18.30
2018-09-05T18:09:54.713Z,18.10
2018-09-05T18:12:23.250Z,18.00
2018-09-05T18:14:51.859Z,17.70
2018-09-05T18:17:20.514Z,17.50
2018-09-05T18:19:49.013Z,17.40
2018-09-05T18:22:17.490Z,17.30
2018-09-05T18:24:46.079Z,17.10
2018-09-05T18:27:14.594Z,16.90
2018-09-05T18:29:43.738Z,16.80
2018-09-05T18:32:12.489Z,16.60
2018-09-05T18:34:41.079Z,16.50
2018-09-05T18:37:09.664Z,16.40
2018-09-05T18:39:38.172Z,16.30
2018-09-05T18:42:06.647Z,16.20
2018-09-05T18:44:35.205Z,16.10
2018-09-05T18:47:03.804Z,15.90
2018-09-05T18:49:32.282Z,15.80
2018-09-05T18:52:00.811Z,15.60
2018-09-05T18:54:29.415Z,15.50
2018-09-05T18:56:58.063Z,15.40
2018-09-05T18:59:26.568Z,15.30
2018-09-05T19:01:55.048Z,15.30
2018-09-05T19:04:23.561Z,15.20
2018-09-05T19:06:52.106Z,15.10
2018-09-05T19:09:20.730Z,15.10
2018-09-05T19:11:49.231Z,14.90
2018-09-05T19:14:17.873Z,14.80
2018-09-05T19:16:46.351Z,14.60
2018-09-05T19:19:15.991Z,14.60
2018-09-05T19:21:44.531Z,14.50
2018-09-05T19:24:13.033Z,14.40
2018-09-05T19:26:41.518Z,14.30
2018-09-05T19:29:10.059Z,14.30
2018-09-05T19:31:38.592Z,14.20
2018-09-05T19:34:07.731Z,14.10
2018-09-05T19:36:36.530Z,14.10
2018-09-05T19:39:07.182Z,14.00
2018-09-05T19:41:35.647Z,14.00
2018-09-05T19:44:04.304Z,13.90
2018-09-05T19:46:32.827Z,13.80
2018-09-05T19:49:01.369Z,13.80
2018-09-05T19:51:29.967Z,13.70
2018-09-05T19:53:58.396Z,13.60
2018-09-05T19:56:26.951Z,13.60
2018-09-05T19:58:55.601Z,13.50
2018-09-05T20:01:24.086Z,13.40
2018-09-05T20:03:52.528Z,13.30
2018-09-05T20:06:21.010Z,13.40
2018-09-05T20:08:49.623Z,13.30
2018-09-05T20:11:18.014Z,13.30
2018-09-05T20:13:46.450Z,13.20
2018-09-05T20:16:14.910Z,13.10
2018-09-05T20:18:43.419Z,13.10
2018-09-05T20:21:11.899Z,13.10
2018-09-05T20:23:40.349Z,13.10
2018-09-05T20:26:08.876Z,13.10
2018-09-05T20:28:37.325Z,13.20
2018-09-05T20:31:05.874Z,13.10
2018-09-05T20:33:34.265Z,13.00
2018-09-05T20:36:02.690Z,12.90
2018-09-05T20:38:31.169Z,12.90
2018-09-05T20:40:59.686Z,12.90
2018-09-05T20:43:28.024Z,12.80
2018-09-05T20:45:56.449Z,12.70
2018-09-05T20:48:24.922Z,12.60
2018-09-05T20:50:53.511Z,12.50
2018-09-05T20:53:21.846Z,12.40
2018-09-05T20:55:50.298Z,12.30
2018-09-05T20:58:18.878Z,12.30
2018-09-05T21:00:47.326Z,12.30
2018-09-05T21:03:15.750Z,12.30
2018-09-05T21:05:44.064Z,12.30
2018-09-05T21:08:12.465Z,12.30
2018-09-05T21:10:40.874Z,12.30
2018-09-05T21:13:09.206Z,12.20
2018-09-05T21:15:37.604Z,12.20
2018-09-05T21:18:06.255Z,12.20
2018-09-05T21:20:34.512Z,12.20
2018-09-05T21:23:02.934Z,12.30
2018-09-05T21:25:31.269Z,12.20
2018-09-05T21:27:59.868Z,12.10
2018-09-05T21:30:28.371Z,12.10
2018-09-05T21:32:56.866Z,12.10
2018-09-05T21:35:25.239Z,12.10
2018-09-05T21:37:53.677Z,11.90
2018-09-05T21:40:22.001Z,11.80
2018-09-05T21:42:50.340Z,11.70
2018-09-05T21:45:18.673Z,11.60
2018-09-05T21:47:47.042Z,11.60
2018-09-05T21:50:15.383Z,11.60
2018-09-05T21:52:43.763Z,11.60
2018-09-05T21:55:12.040Z,11.70
2018-09-05T21:57:40.358Z,11.70
2018-09-05T22:00:09.701Z,11.80
2018-09-05T22:02:38.398Z,11.70
2018-09-05T22:05:06.868Z,11.70
2018-09-05T22:07:35.333Z,11.60
2018-09-05T22:10:03.736Z,11.50
2018-09-05T22:12:32.112Z,11.50
2018-09-05T22:15:00.539Z,11.40
2018-09-05T22:17:28.862Z,11.40
2018-09-05T22:19:57.193Z,11.40
2018-09-05T22:22:25.509Z,11.40
2018-09-05T22:24:53.922Z,11.40
2018-09-05T22:27:22.238Z,11.40
2018-09-05T22:29:50.586Z,11.40
2018-09-05T22:32:19.048Z,11.30
2018-09-05T22:34:47.501Z,11.30
2018-09-05T22:37:15.957Z,11.30
2018-09-05T22:39:44.599Z,11.20
2018-09-05T22:42:13.898Z,11.40
2018-09-05T22:44:55.025Z,11.50
2018-09-05T22:47:34.752Z,11.50
2018-09-05T22:50:19.856Z,11.40
2018-09-05T22:53:09.010Z,11.30
2018-09-05T22:56:01.965Z,11.40
2018-09-05T22:59:14.104Z,11.20
2018-09-05T23:06:01.782Z,11.30
2018-09-05T23:08:35.242Z,11.30
2018-09-05T23:11:15.308Z,11.10
2018-09-05T23:14:01.374Z,11.10
2018-09-05T23:16:41.377Z,11.20
2018-09-05T23:19:31.863Z,11.00
2018-09-05T23:22:00.329Z,11.00
2018-09-05T23:24:28.679Z,11.00
2018-09-05T23:26:57.000Z,11.00
2018-09-05T23:29:25.476Z,10.90
2018-09-05T23:31:53.732Z,10.90
2018-09-05T23:34:22.087Z,10.90
2018-09-05T23:36:50.452Z,10.90
2018-09-05T23:39:18.794Z,10.80
2018-09-05T23:41:47.107Z,10.80
2018-09-05T23:44:15.416Z,10.80
2018-09-05T23:46:43.795Z,10.80
2018-09-05T23:49:12.153Z,10.90
2018-09-05T23:51:40.475Z,11.00
2018-09-05T23:54:08.855Z,11.00
2018-09-05T23:56:37.186Z,10.90
2018-09-05T23:59:06.079Z,10.90
